Station Historical Data
Daily Summary for May 22, 2017 Units:  English    Metric   Both
« Previous Day
Next Day »
Daily Weekly Monthly Yearly Custom
  High: Low: Average:
Temperature: 61.9 °F 50.0 °F 57.8 °F
Dew Point: 57.1 °F 43.4 °F 50.2 °F
Humidity: 86% 58% 76%
Wind Speed: 19.0mph 0.0mph 6.1mph
Wind Gust: 28.0mph - -
Wind- - SW
Pressure: 29.99 in 29.90 in -
Precipitation: 0.00 in    
Historical Graphs
 
 
Tabular Data for May 22, 2017
Time Temperature Dew Point Pressure Wind Wind Speed Wind Gust Humidity Rainfall Rate (Hourly)
00:00 60.7 °F 54.8 °F 29.94 in South 2.0 mph 10.0 mph 81% 0.00 in
00:05 60.6 °F 54.7 °F 29.94 in SSE 8.0 mph 12.0 mph 81% 0.00 in
00:10 60.5 °F 54.6 °F 29.94 in SSW 3.0 mph 8.0 mph 81% 0.00 in
00:15 60.5 °F 54.6 °F 29.94 in SSW 5.0 mph 13.0 mph 81% 0.00 in
00:20 60.7 °F 55.2 °F 29.94 in SSW 7.0 mph 10.0 mph 82% 0.00 in
00:25 60.8 °F 55.3 °F 29.93 in SSW 5.0 mph 10.0 mph 82% 0.00 in
00:30 60.9 °F 55.0 °F 29.93 in SSW 6.0 mph 13.0 mph 81% 0.00 in
00:35 61.0 °F 55.1 °F 29.93 in South 5.0 mph 13.0 mph 81% 0.00 in
00:40 61.3 °F 55.4 °F 29.93 in South 5.0 mph 14.0 mph 81% 0.00 in
00:45 61.3 °F 55.4 °F 29.93 in SSW 7.0 mph 12.0 mph 81% 0.00 in
00:50 61.3 °F 55.4 °F 29.93 in SSW 2.0 mph 13.0 mph 81% 0.00 in
00:55 61.2 °F 55.3 °F 29.92 in South 3.0 mph 13.0 mph 81% 0.00 in
01:00 61.1 °F 55.2 °F 29.93 in South 6.0 mph 12.0 mph 81% 0.00 in
01:05 60.9 °F 55.0 °F 29.93 in South 5.0 mph 12.0 mph 81% 0.00 in
01:10 60.9 °F 55.4 °F 29.93 in South 5.0 mph 11.0 mph 82% 0.00 in
01:15 60.9 °F 55.4 °F 29.93 in South 5.0 mph 11.0 mph 82% 0.00 in
01:20 60.9 °F 55.4 °F 29.93 in South 4.0 mph 8.0 mph 82% 0.00 in
01:25 61.0 °F 55.5 °F 29.92 in South 4.0 mph 10.0 mph 82% 0.00 in
01:30 61.1 °F 55.6 °F 29.93 in South 4.0 mph 12.0 mph 82% 0.00 in
01:35 61.0 °F 55.5 °F 29.92 in South 4.0 mph 12.0 mph 82% 0.00 in
01:40 61.0 °F 55.5 °F 29.92 in SSW 2.0 mph 8.0 mph 82% 0.00 in
01:45 60.9 °F 55.4 °F 29.92 in South 2.0 mph 7.0 mph 82% 0.00 in
01:50 60.9 °F 55.4 °F 29.92 in South 3.0 mph 7.0 mph 82% 0.00 in
01:55 61.0 °F 55.8 °F 29.92 in SSE 3.0 mph 8.0 mph 83% 0.00 in
02:00 61.1 °F 55.6 °F 29.92 in South 2.0 mph 6.0 mph 82% 0.00 in
02:05 61.1 °F 55.9 °F 29.92 in South 3.0 mph 6.0 mph 83% 0.00 in
02:10 61.2 °F 56.0 °F 29.92 in South 3.0 mph 7.0 mph 83% 0.00 in
02:15 61.3 °F 56.1 °F 29.93 in SSW 4.0 mph 8.0 mph 83% 0.00 in
02:20 61.4 °F 55.9 °F 29.93 in SSW 4.0 mph 8.0 mph 82% 0.00 in
02:25 61.5 °F 56.0 °F 29.92 in SSW 3.0 mph 8.0 mph 82% 0.00 in
02:30 61.6 °F 56.0 °F 29.92 in SSW 4.0 mph 7.0 mph 82% 0.00 in
02:35 61.6 °F 56.0 °F 29.92 in SSW 3.0 mph 8.0 mph 82% 0.00 in
02:40 61.7 °F 56.1 °F 29.92 in South 4.0 mph 9.0 mph 82% 0.00 in
02:45 61.6 °F 56.4 °F 29.92 in SW 4.0 mph 10.0 mph 83% 0.00 in
02:50 61.6 °F 56.4 °F 29.92 in SSE 6.0 mph 10.0 mph 83% 0.00 in
02:55 61.6 °F 56.7 °F 29.91 in South 4.0 mph 10.0 mph 84% 0.00 in
03:00 61.4 °F 56.5 °F 29.92 in SSW 1.0 mph 9.0 mph 84% 0.00 in
03:05 61.3 °F 56.8 °F 29.92 in South 4.0 mph 9.0 mph 85% 0.00 in
03:10 61.2 °F 56.7 °F 29.92 in South 4.0 mph 9.0 mph 85% 0.00 in
03:15 61.1 °F 56.6 °F 29.92 in SE 5.0 mph 9.0 mph 85% 0.00 in
03:20 61.0 °F 56.5 °F 29.91 in SSW 5.0 mph 11.0 mph 85% 0.00 in
03:25 60.9 °F 56.4 °F 29.91 in South 4.0 mph 7.0 mph 85% 0.00 in
03:30 60.9 °F 56.4 °F 29.91 in SSW 5.0 mph 9.0 mph 85% 0.00 in
03:35 60.9 °F 56.4 °F 29.91 in South 4.0 mph 9.0 mph 85% 0.00 in
03:40 61.0 °F 56.5 °F 29.91 in South 4.0 mph 9.0 mph 85% 0.00 in
03:45 61.0 °F 56.5 °F 29.91 in South 3.0 mph 7.0 mph 85% 0.00 in
03:50 61.1 °F 56.6 °F 29.91 in SSW 3.0 mph 9.0 mph 85% 0.00 in
03:55 61.3 °F 56.8 °F 29.91 in SSW 3.0 mph 9.0 mph 85% 0.00 in
04:00 61.4 °F 56.8 °F 29.91 in SSW 3.0 mph 8.0 mph 85% 0.00 in
04:05 61.5 °F 56.9 °F 29.91 in SSW 3.0 mph 7.0 mph 85% 0.00 in
04:10 61.6 °F 57.0 °F 29.91 in South 6.0 mph 8.0 mph 85% 0.00 in
04:15 61.7 °F 57.1 °F 29.91 in SSW 4.0 mph 7.0 mph 85% 0.00 in
04:20 61.6 °F 57.0 °F 29.91 in South 7.0 mph 9.0 mph 85% 0.00 in
04:25 61.6 °F 57.0 °F 29.91 in South 4.0 mph 7.0 mph 85% 0.00 in
04:30 61.4 °F 56.8 °F 29.91 in SSW 5.0 mph 9.0 mph 85% 0.00 in
04:35 61.4 °F 56.8 °F 29.91 in SSW 3.0 mph 9.0 mph 85% 0.00 in
04:40 61.4 °F 56.8 °F 29.91 in SSW 3.0 mph 8.0 mph 85% 0.00 in
04:45 61.6 °F 57.0 °F 29.91 in SSW 4.0 mph 10.0 mph 85% 0.00 in
04:50 61.6 °F 57.0 °F 29.91 in SSW 4.0 mph 10.0 mph 85% 0.00 in
04:55 61.6 °F 57.0 °F 29.91 in SW 2.0 mph 8.0 mph 85% 0.00 in
05:00 61.7 °F 57.1 °F 29.90 in SSW 2.0 mph 6.0 mph 85% 0.00 in
05:05 61.7 °F 57.1 °F 29.91 in SSW 3.0 mph 7.0 mph 85% 0.00 in
05:10 61.6 °F 57.0 °F 29.91 in SSW 3.0 mph 7.0 mph 85% 0.00 in
05:15 61.5 °F 56.9 °F 29.91 in SSW 4.0 mph 9.0 mph 85% 0.00 in
05:20 61.5 °F 56.9 °F 29.90 in SSW 3.0 mph 9.0 mph 85% 0.00 in
05:25 61.5 °F 56.9 °F 29.90 in SSW 5.0 mph 6.0 mph 85% 0.00 in
05:30 61.6 °F 57.0 °F 29.90 in South 3.0 mph 5.0 mph 85% 0.00 in
05:35 61.6 °F 57.0 °F 29.91 in SSW 3.0 mph 8.0 mph 85% 0.00 in
05:40 61.6 °F 57.0 °F 29.91 in SSW 3.0 mph 8.0 mph 85% 0.00 in
05:45 61.7 °F 56.8 °F 29.91 in SE 5.0 mph 9.0 mph 84% 0.00 in
05:50 61.7 °F 56.8 °F 29.91 in SSW 2.0 mph 9.0 mph 84% 0.00 in
05:55 61.6 °F 56.7 °F 29.91 in SSW 1.0 mph 5.0 mph 84% 0.00 in
06:00 61.6 °F 56.7 °F 29.91 in SW 4.0 mph 9.0 mph 84% 0.00 in
06:05 61.6 °F 56.7 °F 29.91 in SSW 3.0 mph 9.0 mph 84% 0.00 in
06:10 61.6 °F 56.7 °F 29.91 in SSW 4.0 mph 8.0 mph 84% 0.00 in
06:15 61.6 °F 56.7 °F 29.91 in SSW 3.0 mph 8.0 mph 84% 0.00 in
06:20 61.7 °F 56.8 °F 29.91 in SSW 3.0 mph 7.0 mph 84% 0.00 in
06:25 61.6 °F 56.7 °F 29.91 in SSW 3.0 mph 8.0 mph 84% 0.00 in
06:30 61.7 °F 56.8 °F 29.91 in WSW 4.0 mph 7.0 mph 84% 0.00 in
06:35 61.7 °F 56.8 °F 29.92 in SSW 3.0 mph 7.0 mph 84% 0.00 in
06:40 61.8 °F 56.9 °F 29.91 in SSW 3.0 mph 7.0 mph 84% 0.00 in
06:45 61.8 °F 56.9 °F 29.91 in SW 3.0 mph 6.0 mph 84% 0.00 in
06:50 61.9 °F 57.0 °F 29.91 in SW 4.0 mph 8.0 mph 84% 0.00 in
06:55 61.9 °F 57.0 °F 29.92 in SSW 4.0 mph 9.0 mph 84% 0.00 in
07:00 61.9 °F 57.0 °F 29.91 in Calm   7.0 mph 84% 0.00 in
07:05 61.8 °F 56.9 °F 29.91 in SW 6.0 mph 9.0 mph 84% 0.00 in
07:10 61.8 °F 56.9 °F 29.91 in SSW 3.0 mph 11.0 mph 84% 0.00 in
07:15 61.8 °F 56.9 °F 29.91 in SSW 3.0 mph 11.0 mph 84% 0.00 in
07:20 61.9 °F 57.0 °F 29.91 in SSW 3.0 mph 10.0 mph 84% 0.00 in
07:25 61.9 °F 57.0 °F 29.91 in SW 4.0 mph 11.0 mph 84% 0.00 in
07:30 61.9 °F 57.0 °F 29.91 in SW 4.0 mph 11.0 mph 84% 0.00 in
07:35 61.7 °F 56.8 °F 29.91 in SW 4.0 mph 8.0 mph 84% 0.00 in
07:40 61.5 °F 56.3 °F 29.91 in WNW 3.0 mph 8.0 mph 83% 0.00 in
07:45 60.9 °F 56.0 °F 29.92 in West 8.0 mph 9.0 mph 84% 0.00 in
07:50 60.3 °F 55.4 °F 29.92 in WSW 7.0 mph 9.0 mph 84% 0.00 in
07:55 59.7 °F 55.2 °F 29.92 in WSW 7.0 mph 9.0 mph 85% 0.00 in
08:00 59.3 °F 54.8 °F 29.92 in SSW 2.0 mph 11.0 mph 85% 0.00 in
08:05 59.3 °F 54.8 °F 29.92 in West 4.0 mph 7.0 mph 85% 0.00 in
08:10 59.2 °F 54.7 °F 29.92 in WSW 4.0 mph 11.0 mph 85% 0.00 in
08:15 59.1 °F 54.6 °F 29.92 in SSW 6.0 mph 10.0 mph 85% 0.00 in
08:20 58.9 °F 54.4 °F 29.92 in SW 5.0 mph 13.0 mph 85% 0.00 in
08:25 58.2 °F 53.7 °F 29.93 in SSW 4.0 mph 12.0 mph 85% 0.00 in
08:30 57.9 °F 53.7 °F 29.92 in South 6.0 mph 10.0 mph 86% 0.00 in
08:35 57.7 °F 53.5 °F 29.93 in WSW 4.0 mph 10.0 mph 86% 0.00 in
08:40 57.6 °F 53.4 °F 29.92 in SW 5.0 mph 12.0 mph 86% 0.00 in
08:45 57.6 °F 53.4 °F 29.92 in SW 4.0 mph 12.0 mph 86% 0.00 in
08:50 57.8 °F 53.6 °F 29.93 in SSW 5.0 mph 9.0 mph 86% 0.00 in
08:55 57.5 °F 53.0 °F 29.93 in WSW 4.0 mph 13.0 mph 85% 0.00 in
09:00 57.1 °F 52.6 °F 29.93 in SW 7.0 mph 12.0 mph 85% 0.00 in
09:05 57.0 °F 52.5 °F 29.93 in SW 11.0 mph 18.0 mph 85% 0.00 in
09:10 57.0 °F 52.2 °F 29.93 in SW 8.0 mph 18.0 mph 84% 0.00 in
09:15 57.0 °F 51.9 °F 29.93 in SSW 7.0 mph 17.0 mph 83% 0.00 in
09:20 57.1 °F 52.0 °F 29.93 in SW 10.0 mph 18.0 mph 83% 0.00 in
09:25 57.3 °F 52.2 °F 29.93 in SW 14.0 mph 14.0 mph 83% 0.00 in
09:30 57.6 °F 52.1 °F 29.93 in SW 7.0 mph 20.0 mph 82% 0.00 in
09:35 57.9 °F 52.4 °F 29.93 in SSW 5.0 mph 19.0 mph 82% 0.00 in
09:40 58.4 °F 52.3 °F 29.93 in SW 8.0 mph 19.0 mph 80% 0.00 in
09:45 57.8 °F 51.7 °F 29.93 in SW 8.0 mph 18.0 mph 80% 0.00 in
09:50 57.6 °F 51.8 °F 29.93 in SW 9.0 mph 18.0 mph 81% 0.00 in
09:55 57.7 °F 51.6 °F 29.93 in SW 8.0 mph 21.0 mph 80% 0.00 in
10:00 57.7 °F 51.6 °F 29.93 in SW 8.0 mph 21.0 mph 80% 0.00 in
10:05 58.2 °F 51.7 °F 29.93 in SW 18.0 mph 18.0 mph 79% 0.00 in
10:10 58.2 °F 51.4 °F 29.93 in SW 8.0 mph 18.0 mph 78% 0.00 in
10:15 57.7 °F 50.9 °F 29.94 in SW 9.0 mph 18.0 mph 78% 0.00 in
10:20 57.7 °F 50.9 °F 29.94 in WSW 6.0 mph 13.0 mph 78% 0.00 in
10:25 57.8 °F 51.0 °F 29.94 in West 7.0 mph 15.0 mph 78% 0.00 in
10:30 58.7 °F 51.5 °F 29.94 in WSW 12.0 mph 19.0 mph 77% 0.00 in
10:35 58.1 °F 50.6 °F 29.94 in SW 11.0 mph 18.0 mph 76% 0.00 in
10:40 57.8 °F 50.6 °F 29.94 in WSW 10.0 mph 18.0 mph 77% 0.00 in
10:45 57.9 °F 50.7 °F 29.94 in WSW 9.0 mph 19.0 mph 77% 0.00 in
10:50 58.4 °F 50.9 °F 29.95 in WSW 9.0 mph 19.0 mph 76% 0.00 in
10:55 58.3 °F 51.1 °F 29.95 in WSW 9.0 mph 17.0 mph 77% 0.00 in
11:00 58.4 °F 50.9 °F 29.95 in WSW 7.0 mph 16.0 mph 76% 0.00 in
11:05 58.4 °F 50.9 °F 29.96 in WSW 13.0 mph 25.0 mph 76% 0.00 in
11:10 57.7 °F 50.2 °F 29.96 in West 8.0 mph 22.0 mph 76% 0.00 in
11:15 57.5 °F 50.0 °F 29.96 in SW 11.0 mph 22.0 mph 76% 0.00 in
11:20 57.0 °F 49.9 °F 29.96 in WSW 10.0 mph 21.0 mph 77% 0.00 in
11:25 56.2 °F 49.1 °F 29.96 in SW 10.0 mph 21.0 mph 77% 0.00 in
11:30 55.8 °F 48.7 °F 29.97 in WSW 11.0 mph 21.0 mph 77% 0.00 in
11:35 55.7 °F 48.6 °F 29.96 in South 6.0 mph 20.0 mph 77% 0.00 in
11:40 55.9 °F 49.1 °F 29.96 in West 9.0 mph 16.0 mph 78% 0.00 in
11:45 56.2 °F 48.4 °F 29.96 in WSW 9.0 mph 17.0 mph 75% 0.00 in
11:50 55.8 °F 48.3 °F 29.96 in WSW 11.0 mph 20.0 mph 76% 0.00 in
11:55 55.0 °F 47.9 °F 29.96 in SW 4.0 mph 21.0 mph 77% 0.00 in
12:00 55.1 °F 48.0 °F 29.96 in WSW 6.0 mph 19.0 mph 77% 0.00 in
12:05 54.6 °F 47.5 °F 29.97 in WSW 16.0 mph 22.0 mph 77% 0.00 in
12:10 54.5 °F 47.8 °F 29.97 in NW 11.0 mph 19.0 mph 78% 0.00 in
12:15 55.1 °F 48.4 °F 29.97 in WSW 10.0 mph 19.0 mph 78% 0.00 in
12:20 55.3 °F 47.9 °F 29.97 in WSW 7.0 mph 17.0 mph 76% 0.00 in
12:25 55.7 °F 47.9 °F 29.97 in WSW 8.0 mph 18.0 mph 75% 0.00 in
12:30 56.3 °F 47.8 °F 29.97 in WSW 8.0 mph 18.0 mph 73% 0.00 in
12:35 57.3 °F 49.4 °F 29.97 in WSW 8.0 mph 16.0 mph 75% 0.00 in
12:40 57.8 °F 48.1 °F 29.97 in WSW 8.0 mph 17.0 mph 70% 0.00 in
12:45 56.5 °F 47.2 °F 29.97 in West 5.0 mph 23.0 mph 71% 0.00 in
12:50 56.6 °F 48.0 °F 29.98 in WSW 12.0 mph 20.0 mph 73% 0.00 in
12:55 56.7 °F 48.1 °F 29.98 in SSW 16.0 mph 24.0 mph 73% 0.00 in
13:00 56.2 °F 47.7 °F 29.97 in West 8.0 mph 18.0 mph 73% 0.00 in
13:05 56.5 °F 48.3 °F 29.97 in WSW 17.0 mph 20.0 mph 74% 0.00 in
13:10 56.5 °F 47.9 °F 29.97 in SW 17.0 mph 27.0 mph 73% 0.00 in
13:15 56.2 °F 47.7 °F 29.97 in WSW 12.0 mph 27.0 mph 73% 0.00 in
13:20 56.6 °F 47.7 °F 29.97 in WSW 12.0 mph 23.0 mph 72% 0.00 in
13:25 57.1 °F 48.2 °F 29.97 in SW 11.0 mph 23.0 mph 72% 0.00 in
13:30 57.6 °F 48.6 °F 29.97 in SW 11.0 mph 22.0 mph 72% 0.00 in
13:35 57.7 °F 48.4 °F 29.97 in WSW 11.0 mph 22.0 mph 71% 0.00 in
13:40 57.6 °F 48.3 °F 29.96 in SSW 7.0 mph 22.0 mph 71% 0.00 in
13:45 57.3 °F 47.6 °F 29.96 in SW 12.0 mph 25.0 mph 70% 0.00 in
13:50 57.3 °F 47.2 °F 29.97 in SW 14.0 mph 23.0 mph 69% 0.00 in
13:55 56.8 °F 47.1 °F 29.97 in West 19.0 mph 19.0 mph 70% 0.00 in
14:00 56.5 °F 47.6 °F 29.97 in SW 15.0 mph 21.0 mph 72% 0.00 in
14:05 56.1 °F 46.8 °F 29.97 in West 5.0 mph 19.0 mph 71% 0.00 in
14:10 56.7 °F 47.0 °F 29.98 in West 11.0 mph 21.0 mph 70% 0.00 in
14:15 57.2 °F 46.7 °F 29.98 in WSW 11.0 mph 24.0 mph 68% 0.00 in
14:20 57.1 °F 46.2 °F 29.97 in WSW 12.0 mph 24.0 mph 67% 0.00 in
14:25 57.8 °F 47.7 °F 29.97 in WSW 12.0 mph 22.0 mph 69% 0.00 in
14:30 58.6 °F 46.9 °F 29.97 in WSW 9.0 mph 22.0 mph 65% 0.00 in
14:35 58.3 °F 45.8 °F 29.97 in WSW 9.0 mph 21.0 mph 63% 0.00 in
14:40 58.0 °F 45.5 °F 29.97 in WSW 8.0 mph 22.0 mph 63% 0.00 in
14:45 57.9 °F 45.8 °F 29.97 in WSW 13.0 mph 24.0 mph 64% 0.00 in
14:50 57.8 °F 45.7 °F 29.98 in WSW 12.0 mph 24.0 mph 64% 0.00 in
14:55 58.3 °F 47.8 °F 29.98 in WSW 11.0 mph 22.0 mph 68% 0.00 in
15:00 58.7 °F 46.5 °F 29.98 in WSW 8.0 mph 20.0 mph 64% 0.00 in
15:05 58.6 °F 47.3 °F 29.97 in SSW 12.0 mph 23.0 mph 66% 0.00 in
15:10 58.9 °F 47.2 °F 29.98 in SW 7.0 mph 19.0 mph 65% 0.00 in
15:15 58.0 °F 45.5 °F 29.98 in WSW 11.0 mph 23.0 mph 63% 0.00 in
15:20 58.3 °F 46.2 °F 29.98 in WSW 11.0 mph 28.0 mph 64% 0.00 in
15:25 57.8 °F 46.5 °F 29.98 in WSW 11.0 mph 28.0 mph 66% 0.00 in
15:30 57.7 °F 45.6 °F 29.98 in West 14.0 mph 25.0 mph 64% 0.00 in
15:35 57.8 °F 46.5 °F 29.98 in West 7.0 mph 18.0 mph 66% 0.00 in
15:40 58.0 °F 46.7 °F 29.98 in WNW 9.0 mph 20.0 mph 66% 0.00 in
15:45 57.6 °F 46.3 °F 29.98 in SW 16.0 mph 21.0 mph 66% 0.00 in
15:50 57.5 °F 46.2 °F 29.98 in WSW 11.0 mph 22.0 mph 66% 0.00 in
15:55 57.0 °F 46.1 °F 29.98 in SW 11.0 mph 24.0 mph 67% 0.00 in
16:00 57.3 °F 46.0 °F 29.98 in West 14.0 mph 17.0 mph 66% 0.00 in
16:05 57.7 °F 46.0 °F 29.98 in WSW 7.0 mph 18.0 mph 65% 0.00 in
16:10 57.9 °F 45.8 °F 29.98 in SW 6.0 mph 20.0 mph 64% 0.00 in
16:15 58.3 °F 46.2 °F 29.98 in West 7.0 mph 20.0 mph 64% 0.00 in
16:20 57.5 °F 45.0 °F 29.98 in WSW 10.0 mph 21.0 mph 63% 0.00 in
16:25 57.7 °F 45.2 °F 29.98 in WSW 11.0 mph 21.0 mph 63% 0.00 in
16:30 58.3 °F 45.8 °F 29.98 in WSW 10.0 mph 21.0 mph 63% 0.00 in
16:35 58.2 °F 44.8 °F 29.98 in WSW 12.0 mph 22.0 mph 61% 0.00 in
16:40 58.2 °F 44.8 °F 29.98 in SW 16.0 mph 19.0 mph 61% 0.00 in
16:45 57.6 °F 43.8 °F 29.97 in WSW 4.0 mph 19.0 mph 60% 0.00 in
16:50 58.1 °F 44.7 °F 29.97 in WSW 11.0 mph 21.0 mph 61% 0.00 in
16:55 57.7 °F 44.3 °F 29.98 in WSW 11.0 mph 21.0 mph 61% 0.00 in
17:00 58.1 °F 44.3 °F 29.97 in WSW 10.0 mph 22.0 mph 60% 0.00 in
17:05 57.8 °F 44.0 °F 29.97 in WSW 9.0 mph 22.0 mph 60% 0.00 in
17:10 58.3 °F 43.6 °F 29.97 in WSW 8.0 mph 19.0 mph 58% 0.00 in
17:15 57.8 °F 43.6 °F 29.97 in West 12.0 mph 18.0 mph 59% 0.00 in
17:20 57.6 °F 43.4 °F 29.97 in WNW 7.0 mph 21.0 mph 59% 0.00 in
17:25 57.4 °F 43.6 °F 29.97 in WSW 10.0 mph 19.0 mph 60% 0.00 in
17:30 57.2 °F 43.9 °F 29.97 in WSW 6.0 mph 16.0 mph 61% 0.00 in
17:35 57.2 °F 43.4 °F 29.97 in WSW 7.0 mph 19.0 mph 60% 0.00 in
17:40 57.5 °F 44.6 °F 29.97 in WSW 9.0 mph 16.0 mph 62% 0.00 in
17:45 57.5 °F 44.1 °F 29.98 in WSW 8.0 mph 17.0 mph 61% 0.00 in
17:50 57.5 °F 45.4 °F 29.98 in WSW 8.0 mph 17.0 mph 64% 0.00 in
17:55 57.2 °F 44.3 °F 29.98 in WSW 8.0 mph 17.0 mph 62% 0.00 in
18:00 56.8 °F 44.7 °F 29.98 in SW 13.0 mph 16.0 mph 64% 0.00 in
18:05 56.4 °F 44.8 °F 29.98 in WSW 8.0 mph 14.0 mph 65% 0.00 in
18:10 56.5 °F 44.9 °F 29.98 in SW 6.0 mph 14.0 mph 65% 0.00 in
18:15 56.4 °F 44.8 °F 29.98 in WSW 8.0 mph 19.0 mph 65% 0.00 in
18:20 56.2 °F 45.0 °F 29.98 in WSW 8.0 mph 19.0 mph 66% 0.00 in
18:25 56.2 °F 44.6 °F 29.98 in WSW 8.0 mph 18.0 mph 65% 0.00 in
18:30 56.2 °F 44.6 °F 29.98 in West 6.0 mph 19.0 mph 65% 0.00 in
18:35 55.8 °F 44.6 °F 29.98 in SW 6.0 mph 14.0 mph 66% 0.00 in
18:40 55.7 °F 44.5 °F 29.98 in West 2.0 mph 15.0 mph 66% 0.00 in
18:45 55.9 °F 45.1 °F 29.98 in WSW 7.0 mph 16.0 mph 67% 0.00 in
18:50 55.7 °F 44.5 °F 29.98 in WSW 8.0 mph 18.0 mph 66% 0.00 in
18:55 55.7 °F 44.9 °F 29.99 in WSW 10.0 mph 13.0 mph 67% 0.00 in
19:00 55.4 °F 44.6 °F 29.99 in West 10.0 mph 21.0 mph 67% 0.00 in
19:05 55.5 °F 44.7 °F 29.99 in WSW 8.0 mph 21.0 mph 67% 0.00 in
19:10 55.5 °F 44.7 °F 29.99 in WSW 7.0 mph 15.0 mph 67% 0.00 in
19:15 55.4 °F 44.6 °F 29.99 in WSW 6.0 mph 13.0 mph 67% 0.00 in
19:20 55.5 °F 44.7 °F 29.99 in WSW 5.0 mph 15.0 mph 67% 0.00 in
19:25 55.6 °F 44.8 °F 29.99 in WSW 6.0 mph 15.0 mph 67% 0.00 in
19:30 55.4 °F 44.6 °F 29.99 in SW 7.0 mph 13.0 mph 67% 0.00 in
19:35 55.3 °F 44.5 °F 29.99 in WSW 5.0 mph 11.0 mph 67% 0.00 in
19:40 55.1 °F 44.7 °F 29.99 in WSW 5.0 mph 11.0 mph 68% 0.00 in
19:45 55.0 °F 44.6 °F 29.99 in SSW 4.0 mph 12.0 mph 68% 0.00 in
19:50 55.0 °F 44.6 °F 29.99 in SW 3.0 mph 10.0 mph 68% 0.00 in
19:55 54.9 °F 44.5 °F 29.99 in WSW 3.0 mph 10.0 mph 68% 0.00 in
20:00 54.9 °F 44.5 °F 29.99 in SW 6.0 mph 10.0 mph 68% 0.00 in
20:05 54.7 °F 44.7 °F 29.99 in WNW 3.0 mph 10.0 mph 69% 0.00 in
20:10 54.5 °F 44.5 °F 29.99 in SW 5.0 mph 12.0 mph 69% 0.00 in
20:15 54.4 °F 44.8 °F 29.99 in WSW 5.0 mph 12.0 mph 70% 0.00 in
20:20 54.2 °F 44.6 °F 29.99 in WSW 5.0 mph 9.0 mph 70% 0.00 in
20:25 54.1 °F 44.5 °F 29.99 in WSW 4.0 mph 9.0 mph 70% 0.00 in
20:30 53.9 °F 44.7 °F 29.99 in SW 3.0 mph 5.0 mph 71% 0.00 in
20:35 53.7 °F 44.5 °F 29.99 in SSW 3.0 mph 8.0 mph 71% 0.00 in
20:40 53.6 °F 44.8 °F 29.99 in West 5.0 mph 8.0 mph 72% 0.00 in
20:45 53.4 °F 44.6 °F 29.99 in WSW 4.0 mph 8.0 mph 72% 0.00 in
20:50 53.2 °F 44.8 °F 29.99 in WSW 3.0 mph 7.0 mph 73% 0.00 in
20:55 53.1 °F 44.7 °F 29.99 in WSW 3.0 mph 6.0 mph 73% 0.00 in
21:00 53.0 °F 44.9 °F 29.99 in SW 5.0 mph 7.0 mph 74% 0.00 in
21:05 53.1 °F 45.0 °F 29.99 in WSW 1.0 mph 7.0 mph 74% 0.00 in
21:10 53.1 °F 45.0 °F 29.99 in WSW 3.0 mph 7.0 mph 74% 0.00 in
21:15 52.8 °F 44.7 °F 29.99 in WSW 3.0 mph 6.0 mph 74% 0.00 in
21:20 52.8 °F 44.7 °F 29.99 in WSW 2.0 mph 5.0 mph 74% 0.00 in
21:25 52.8 °F 44.7 °F 29.99 in SW 2.0 mph 6.0 mph 74% 0.00 in
21:30 52.8 °F 44.7 °F 29.99 in SW 2.0 mph 6.0 mph 74% 0.00 in
21:35 52.4 °F 44.7 °F 29.99 in SW 1.0 mph 4.0 mph 75% 0.00 in
21:40 52.2 °F 44.9 °F 29.99 in SW 2.0 mph 4.0 mph 76% 0.00 in
21:45 52.1 °F 44.8 °F 29.99 in SW 2.0 mph 4.0 mph 76% 0.00 in
21:50 52.0 °F 44.7 °F 29.99 in SW 2.0 mph 4.0 mph 76% 0.00 in
21:55 51.9 °F 44.9 °F 29.99 in SW 1.0 mph 3.0 mph 77% 0.00 in
22:00 51.7 °F 44.7 °F 29.99 in SW 1.0 mph 5.0 mph 77% 0.00 in
22:05 52.1 °F 45.1 °F 29.99 in SW 2.0 mph 5.0 mph 77% 0.00 in
22:10 52.2 °F 45.2 °F 29.99 in WSW 1.0 mph 4.0 mph 77% 0.00 in
22:15 52.1 °F 45.1 °F 29.99 in Calm   3.0 mph 77% 0.00 in
22:20 51.7 °F 45.1 °F 29.99 in Calm   3.0 mph 78% 0.00 in
22:25 51.7 °F 45.1 °F 29.99 in Calm   3.0 mph 78% 0.00 in
22:30 51.9 °F 45.3 °F 29.99 in Calm   4.0 mph 78% 0.00 in
22:35 51.8 °F 45.2 °F 29.98 in Calm   3.0 mph 78% 0.00 in
22:40 51.8 °F 45.2 °F 29.98 in Calm   3.0 mph 78% 0.00 in
22:45 51.8 °F 45.2 °F 29.99 in Calm   3.0 mph 78% 0.00 in
22:50 51.9 °F 44.9 °F 29.98 in Calm   3.0 mph 77% 0.00 in
22:55 51.6 °F 45.0 °F 29.99 in WSW 1.0 mph 3.0 mph 78% 0.00 in
23:00 51.5 °F 44.9 °F 29.99 in WSW 1.0 mph 3.0 mph 78% 0.00 in
23:05 51.5 °F 44.9 °F 29.98 in WSW 1.0 mph 3.0 mph 78% 0.00 in
23:10 51.5 °F 44.9 °F 29.99 in WSW 1.0 mph 2.0 mph 78% 0.00 in
23:20 51.8 °F 44.8 °F 29.98 in Calm   2.0 mph 77% 0.00 in
23:25 51.4 °F 44.8 °F 29.98 in Calm     78% 0.00 in
23:30 51.2 °F 44.6 °F 29.98 in Calm     78% 0.00 in
23:35 50.8 °F 44.2 °F 29.98 in Calm     78% 0.00 in
23:40 50.4 °F 44.1 °F 29.98 in Calm     79% 0.00 in
23:45 50.1 °F 44.2 °F 29.98 in Calm     80% 0.00 in
23:50 50.1 °F 43.8 °F 29.98 in Calm     79% 0.00 in
23:55 50.0 °F 43.7 °F 29.98 in Calm     79% 0.00 in
Buffalo, New York, USA
Compliments of Weather Underground - 2.5 mb